地図

経路データ

SID SEASON NUMBER BASIN SUBBASIN NAME ISO_TIME NATURE LAT LON WMO_WIND WMO_PRES WMO_AGENCY TRACK_TYPE DIST2LAND LANDFALL IFLAG USA_AGENCY USA_ATCF_ID USA_LAT USA_LON USA_RECORD USA_STATUS USA_WIND USA_PRES USA_SSHS USA_R34_NE USA_R34_SE USA_R34_SW USA_R34_NW USA_R50_NE USA_R50_SE USA_R50_SW USA_R50_NW USA_R64_NE USA_R64_SE USA_R64_SW USA_R64_NW USA_POCI USA_ROCI USA_RMW USA_EYE TOKYO_LAT TOKYO_LON TOKYO_GRADE TOKYO_WIND TOKYO_PRES TOKYO_R50_DIR TOKYO_R50_LONG TOKYO_R50_SHORT TOKYO_R30_DIR TOKYO_R30_LONG TOKYO_R30_SHORT TOKYO_LAND CMA_LAT CMA_LON CMA_CAT CMA_WIND CMA_PRES HKO_LAT HKO_LON HKO_CAT HKO_WIND HKO_PRES NEWDELHI_LAT NEWDELHI_LON NEWDELHI_GRADE NEWDELHI_WIND NEWDELHI_PRES NEWDELHI_CI NEWDELHI_DP NEWDELHI_POCI REUNION_LAT REUNION_LON REUNION_TYPE REUNION_WIND REUNION_PRES REUNION_TNUM REUNION_CI REUNION_RMW REUNION_R34_NE REUNION_R34_SE REUNION_R34_SW REUNION_R34_NW REUNION_R50_NE REUNION_R50_SE REUNION_R50_SW REUNION_R50_NW REUNION_R64_NE REUNION_R64_SE REUNION_R64_SW REUNION_R64_NW BOM_LAT BOM_LON BOM_TYPE BOM_WIND BOM_PRES BOM_TNUM BOM_CI BOM_RMW BOM_R34_NE BOM_R34_SE BOM_R34_SW BOM_R34_NW BOM_R50_NE BOM_R50_SE BOM_R50_SW BOM_R50_NW BOM_R64_NE BOM_R64_SE BOM_R64_SW BOM_R64_NW BOM_ROCI BOM_POCI BOM_EYE BOM_POS_METHOD BOM_PRES_METHOD NADI_LAT NADI_LON NADI_CAT NADI_WIND NADI_PRES WELLINGTON_LAT WELLINGTON_LON WELLINGTON_WIND WELLINGTON_PRES DS824_LAT DS824_LON DS824_STAGE DS824_WIND DS824_PRES TD9636_LAT TD9636_LON TD9636_STAGE TD9636_WIND TD9636_PRES TD9635_LAT TD9635_LON TD9635_WIND TD9635_PRES TD9635_ROCI NEUMANN_LAT NEUMANN_LON NEUMANN_CLASS NEUMANN_WIND NEUMANN_PRES MLC_LAT MLC_LON MLC_CLASS MLC_WIND MLC_PRES USA_GUST BOM_GUST BOM_GUST_PER REUNION_GUST REUNION_GUST_PER USA_SEAHGT USA_SEARAD_NE USA_SEARAD_SE USA_SEARAD_SW USA_SEARAD_NW STORM_SPEED STORM_DIR
1944041S15056 1944 12 SI MM NOT_NAMED 1944-02-10 00:00:00 TS -14.7000 56.0000 main 593 571 _________O____ -1 -14.7000 56.0000 TC 25 5 234
1944041S15056 1944 12 SI MM NOT_NAMED 1944-02-10 03:00:00 TS -14.8450 55.7926 main 571 548 _________P____ -1 -14.8450 55.7926 TC 25 5 232
1944041S15056 1944 12 SI MM NOT_NAMED 1944-02-10 06:00:00 TS -15.0000 55.6000 main 548 525 _________O____ -1 -15.0000 55.6000 TC 25 5 226
1944041S15056 1944 12 SI MM NOT_NAMED 1944-02-10 09:00:00 TS -15.1775 55.4350 main 525 514 _________P____ -1 -15.1775 55.4350 TC 25 5 216
1944041S15056 1944 12 SI MM NOT_NAMED 1944-02-10 12:00:00 TS -15.4000 55.3000 main 514 504 _________O____ -1 -15.4000 55.3000 TC 25 6 206
1944041S15056 1944 12 SI MM NOT_NAMED 1944-02-10 15:00:00 TS -15.6925 55.1701 main 504 494 _________P____ -1 -15.6925 55.1701 TC 25 6 198
1944041S15056 1944 12 SI MM NOT_NAMED 1944-02-10 18:00:00 TS -16.0000 55.1000 main 497 497 _________O____ -1 -16.0000 55.1000 TC 25 6 186
1944041S15056 1944 12 SI MM NOT_NAMED 1944-02-10 21:00:00 TS -16.2575 55.1125 main 494 470 _________P____ -1 -16.2575 55.1125 TC 25 5 169
1944041S15056 1944 12 SI MM NOT_NAMED 1944-02-11 00:00:00 TS -16.5000 55.2000 main 470 445 _________O____ -1 -16.5000 55.2000 TC 25 5 157
1944041S15056 1944 12 SI MM NOT_NAMED 1944-02-11 03:00:00 TS -16.7500 55.3275 main 445 405 _________P____ -1 -16.7500 55.3275 TC 25 6 150
1944041S15056 1944 12 SI MM NOT_NAMED 1944-02-11 06:00:00 TS -17.0000 55.5000 main 405 366 _________O____ -1 -17.0000 55.5000 TC 25 6 145
1944041S15056 1944 12 SI MM NOT_NAMED 1944-02-11 09:00:00 TS -17.2650 55.7000 main 366 336 _________P____ -1 -17.2650 55.7000 TC 25 6 143
1944041S15056 1944 12 SI MM NOT_NAMED 1944-02-11 12:00:00 TS -17.5000 55.9000 main 336 311 _________O____ -1 -17.5000 55.9000 TC 25 5 140
1944041S15056 1944 12 SI MM NOT_NAMED 1944-02-11 15:00:00 TS -17.6650 56.0576 main 306 291 _________P____ -1 -17.6650 56.0576 TC 25 4 137
1944041S15056 1944 12 SI MM NOT_NAMED 1944-02-11 18:00:00 TS -17.8000 56.2000 main 291 276 _________O____ -1 -17.8000 56.2000 TC 25 4 136
1944041S15056 1944 12 SI MM NOT_NAMED 1944-02-11 21:00:00 TS -17.9500 56.3500 main 271 247 _________P____ -1 -17.9500 56.3500 TC 25 4 137
1944041S15056 1944 12 SI MM NOT_NAMED 1944-02-12 00:00:00 TS -18.1000 56.5000 main 247 232 _________O____ -1 -18.1000 56.5000 TC 25 4 136
1944041S15056 1944 12 SI MM NOT_NAMED 1944-02-12 03:00:00 TS -18.2575 56.6575 main 218 203 _________P____ -1 -18.2575 56.6575 TC 25 4 137
1944041S15056 1944 12 SI MM NOT_NAMED 1944-02-12 06:00:00 TS -18.4000 56.8000 main 203 189 _________O____ -1 -18.4000 56.8000 TC 25 3 136
1944041S15056 1944 12 SI MM NOT_NAMED 1944-02-12 09:00:00 TS -18.5000 56.9001 main 189 175 _________P____ -1 -18.5000 56.9001 TC 25 3 136
1944041S15056 1944 12 SI MM NOT_NAMED 1944-02-12 12:00:00 TS -18.6000 57.0000 main 175 162 _________O____ -1 -18.6000 57.0000 TC 25 3 137
1944041S15056 1944 12 SI MM NOT_NAMED 1944-02-12 15:00:00 TS -18.7500 57.1425 main 162 135 _________P____ -1 -18.7500 57.1425 TC 25 4 137
1944041S15056 1944 12 SI MM NOT_NAMED 1944-02-12 18:00:00 TS -18.9000 57.3000 main 135 123 _________O____ -1 -18.9000 57.3000 TC 25 4 130
1944041S15056 1944 12 SI MM NOT_NAMED 1944-02-12 21:00:00 TS -18.9850 57.4426 main 123 111 _________P____ -1 -18.9850 57.4426 TC 25 3 125
1944041S15056 1944 12 SI MM NOT_NAMED 1944-02-13 00:00:00 TS -19.1000 57.6000 main 111 89 _________O____ -1 -19.1000 57.6000 TC 25 5 135
1944041S15056 1944 12 SI MM NOT_NAMED 1944-02-13 03:00:00 TS -19.3275 57.7999 main 90 64 _________P____ -1 -19.3275 57.7999 TC 25 6 143
1944041S15056 1944 12 SI MM NOT_NAMED 1944-02-13 06:00:00 TS -19.6000 58.0000 main 64 47 _________O____ -1 -19.6000 58.0000 TC 25 6 149
1944041S15056 1944 12 SI MM NOT_NAMED 1944-02-13 09:00:00 TS -19.8649 58.1426 main 47 47 _________P____ -1 -19.8649 58.1426 TC 25 6 150
1944041S15056 1944 12 SI MM NOT_NAMED 1944-02-13 12:00:00 TS -20.1000 58.3000 main 56 56 _________O____ -1 -20.1000 58.3000 TC 25 5 137
1944041S15056 1944 12 SI MM NOT_NAMED 1944-02-13 15:00:00 TS -20.2575 58.5351 main 72 72 _________P____ -1 -20.2575 58.5351 TC 25 6 123
1944041S15056 1944 12 SI MM NOT_NAMED 1944-02-13 18:00:00 TS -20.4000 58.8000 main 104 104 _________O____ -1 -20.4000 58.8000 TC 25 6 123
1944041S15056 1944 12 SI MM NOT_NAMED 1944-02-13 21:00:00 TS -20.5700 59.0576 main 139 139 _________P____ -1 -20.5700 59.0576 TC 25 6 131
1944041S15056 1944 12 SI MM NOT_NAMED 1944-02-14 00:00:00 TS -20.8000 59.3000 main 165 165 _________O____ -1 -20.8000 59.3000 TC 25 7 143
1944041S15056 1944 12 SI MM NOT_NAMED 1944-02-14 03:00:00 TS -21.1275 59.5075 main 198 198 _________P____ -1 -21.1275 59.5075 TC 25 8 152
1944041S15056 1944 12 SI MM NOT_NAMED 1944-02-14 06:00:00 TS -21.5000 59.7000 main 235 235 _________O____ -1 -21.5000 59.7000 TC 25 8 153
1944041S15056 1944 12 SI MM NOT_NAMED 1944-02-14 09:00:00 TS -21.8500 59.9075 main 270 270 _________P____ -1 -21.8500 59.9075 TC 25 8 152
1944041S15056 1944 12 SI MM NOT_NAMED 1944-02-14 12:00:00 TS -22.2000 60.1000 main 312 312 _________O____ -1 -22.2000 60.1000 TC 25 8 156
1944041S15056 1944 12 SI MM NOT_NAMED 1944-02-14 15:00:00 TS -22.5574 60.2502 main 356 356 _________P____ -1 -22.5574 60.2502 TC 25 8 158
1944041S15056 1944 12 SI MM NOT_NAMED 1944-02-14 18:00:00 TS -22.9000 60.4000 main 386 386 _________O____ -1 -22.9000 60.4000 TC 25 7 154
1944041S15056 1944 12 SI MM NOT_NAMED 1944-02-14 21:00:00 TS -23.1774 60.5704 main 425 425 _________P____ -1 -23.1774 60.5704 TC 25 7 149
1944041S15056 1944 12 SI MM NOT_NAMED 1944-02-15 00:00:00 TS -23.5000 60.8000 main 463 463 _________O____ -1 -23.5000 60.8000 TC 25 9 148
1944041S15056 1944 12 SI MM NOT_NAMED 1944-02-15 03:00:00 TS -23.9774 61.1125 main 524 524 _________P____ -1 -23.9774 61.1125 TC 25 12 147
1944041S15056 1944 12 SI MM NOT_NAMED 1944-02-15 06:00:00 TS -24.5000 61.5000 main 593 593 _________O____ -1 -24.5000 61.5000 TC 25 12 143
1944041S15056 1944 12 SI MM NOT_NAMED 1944-02-15 09:00:00 TS -24.9650 61.9352 main 661 661 _________P____ -1 -24.9650 61.9352 TC 25 12 138
1944041S15056 1944 12 SI MM NOT_NAMED 1944-02-15 12:00:00 TS -25.4000 62.4000 main 728 728 _________O____ -1 -25.4000 62.4000 TC 25 12 136
1944041S15056 1944 12 SI MM NOT_NAMED 1944-02-15 15:00:00 TS -25.8148 62.8429 main 788 788 _________P____ -1 -25.8148 62.8429 TC 25 11 135
1944041S15056 1944 12 SI MM NOT_NAMED 1944-02-15 18:00:00 TS -26.2000 63.3000 main 855 855 _________O____ -1 -26.2000 63.3000 TC 25 11 131
1944041S15056 1944 12 SI MM NOT_NAMED 1944-02-15 21:00:00 TS -26.5579 63.7894 main 922 922 _________P____ -1 -26.5579 63.7894 TC 25 11 128
1944041S15056 1944 12 SI MM NOT_NAMED 1944-02-16 00:00:00 TS -26.9000 64.3000 main 980 _________O____ -1 -26.9000 64.3000 TC 25 11 127

IBTrACS Databaseについて

本データベースは、米国NOAAが公開する1842年以降の世界の熱帯低気圧のベストトラックデータアーカイブInternational Best Track Archive for Climate Stewardship (IBTrACS)を、ウェブで閲覧しやすい形式に変換したものです。

最終更新日:2021-10-19